Weather at Hausmann Airport

Public forecast

Using degrees Fahrenheit for public forecast. Weather courtesy of forecast.io.

Closest aviation weather report (METAR) to Hausmann Airport

Closest report is Marshall County Airport, 17.2 nm (31.9 km) ESE. Retrieved 2021/07/24 16:35 UTC (22 minutes ago):

KC75 241635Z AUTO 22009G14KT 10SM CLR 29/24 A2993 RMK AO2 T02930239

Closest aviation forecast (TAF) to Hausmann Airport

Closest forecast is General Wayne A. Downing Peoria International Airport, 25.4 nm (47.0 km) S. Retrieved 2021/07/24 12:22 UTC (5 hours ago):

TAF KPIA 241120Z 2412/2512 21007KT 4SM BR SKC TEMPO 2412/2413 3SM BR FM241400 23011KT P6SM SCT035 BKN250 TEMPO 2423/2502 3SM -TSRA BKN035CB FM250200 25004KT P6SM SCT035 BKN250 FM250900 30004KT 4SM BR SCT035 BKN250